sensor_id;sensor_type;location;lat;lon;timestamp;temperature;humidity
5508;DHT22;2776;51.046;6.772;2023-02-28T00:00:48;2.00;99.90
5508;DHT22;2776;51.046;6.772;2023-02-28T00:03:15;2.00;99.90
5508;DHT22;2776;51.046;6.772;2023-02-28T00:05:42;2.00;99.90
5508;DHT22;2776;51.046;6.772;2023-02-28T00:08:09;2.00;99.90
5508;DHT22;2776;51.046;6.772;2023-02-28T00:10:36;2.00;99.90
5508;DHT22;2776;51.046;6.772;2023-02-28T00:13:05;2.00;99.90
5508;DHT22;2776;51.046;6.772;2023-02-28T00:15:32;1.90;99.90
5508;DHT22;2776;51.046;6.772;2023-02-28T00:17:59;1.80;99.90
5508;DHT22;2776;51.046;6.772;2023-02-28T00:20:26;1.80;99.90
5508;DHT22;2776;51.046;6.772;2023-02-28T00:22:53;1.80;99.90
5508;DHT22;2776;51.046;6.772;2023-02-28T00:25:22;1.70;99.90
5508;DHT22;2776;51.046;6.772;2023-02-28T00:27:49;1.50;99.90
5508;DHT22;2776;51.046;6.772;2023-02-28T00:30:19;1.40;99.90
5508;DHT22;2776;51.046;6.772;2023-02-28T00:32:46;1.40;99.90
5508;DHT22;2776;51.046;6.772;2023-02-28T00:35:13;1.30;99.90
5508;DHT22;2776;51.046;6.772;2023-02-28T00:37:40;1.20;99.90
5508;DHT22;2776;51.046;6.772;2023-02-28T00:40:08;1.10;99.90
5508;DHT22;2776;51.046;6.772;2023-02-28T00:42:37;1.10;99.90
5508;DHT22;2776;51.046;6.772;2023-02-28T00:45:05;1.00;99.90
5508;DHT22;2776;51.046;6.772;2023-02-28T00:47:33;1.00;99.90
5508;DHT22;2776;51.046;6.772;2023-02-28T00:50:00;1.00;99.90
5508;DHT22;2776;51.046;6.772;2023-02-28T00:52:27;1.00;99.90
5508;DHT22;2776;51.046;6.772;2023-02-28T00:54:54;1.10;99.90
5508;DHT22;2776;51.046;6.772;2023-02-28T00:57:20;1.00;99.90
5508;DHT22;2776;51.046;6.772;2023-02-28T00:59:47;1.00;99.90
5508;DHT22;2776;51.046;6.772;2023-02-28T01:02:14;0.90;99.90
5508;DHT22;2776;51.046;6.772;2023-02-28T01:04:42;0.90;99.90
5508;DHT22;2776;51.046;6.772;2023-02-28T01:07:09;0.90;99.90
5508;DHT22;2776;51.046;6.772;2023-02-28T01:09:36;1.00;99.90
5508;DHT22;2776;51.046;6.772;2023-02-28T01:12:03;1.00;99.90
5508;DHT22;2776;51.046;6.772;2023-02-28T01:14:30;1.00;99.90
5508;DHT22;2776;51.046;6.772;2023-02-28T01:16:56;1.00;99.90
5508;DHT22;2776;51.046;6.772;2023-02-28T01:19:23;1.10;99.90
5508;DHT22;2776;51.046;6.772;2023-02-28T01:21:51;1.10;99.90
5508;DHT22;2776;51.046;6.772;2023-02-28T01:24:18;1.10;99.90
5508;DHT22;2776;51.046;6.772;2023-02-28T01:26:44;1.10;99.90
5508;DHT22;2776;51.046;6.772;2023-02-28T01:29:11;1.10;99.90
5508;DHT22;2776;51.046;6.772;2023-02-28T01:31:38;1.10;99.90
5508;DHT22;2776;51.046;6.772;2023-02-28T01:34:05;1.00;99.90
5508;DHT22;2776;51.046;6.772;2023-02-28T01:36:31;1.00;99.90
5508;DHT22;2776;51.046;6.772;2023-02-28T01:38:59;1.00;99.90
5508;DHT22;2776;51.046;6.772;2023-02-28T01:41:28;1.00;99.90
5508;DHT22;2776;51.046;6.772;2023-02-28T01:44:01;1.10;99.90
5508;DHT22;2776;51.046;6.772;2023-02-28T01:46:30;1.10;99.90
5508;DHT22;2776;51.046;6.772;2023-02-28T01:49:01;1.00;99.90
5508;DHT22;2776;51.046;6.772;2023-02-28T01:51:32;1.00;99.90
5508;DHT22;2776;51.046;6.772;2023-02-28T01:54:05;1.00;99.90
5508;DHT22;2776;51.046;6.772;2023-02-28T01:56:41;0.90;99.90
5508;DHT22;2776;51.046;6.772;2023-02-28T01:59:08;0.90;99.90
5508;DHT22;2776;51.046;6.772;2023-02-28T02:01:35;0.90;99.90
5508;DHT22;2776;51.046;6.772;2023-02-28T02:04:03;0.80;99.90
5508;DHT22;2776;51.046;6.772;2023-02-28T02:06:34;0.80;99.90
5508;DHT22;2776;51.046;6.772;2023-02-28T02:09:03;0.80;99.90
5508;DHT22;2776;51.046;6.772;2023-02-28T02:11:30;0.80;99.90
5508;DHT22;2776;51.046;6.772;2023-02-28T02:17:15;0.70;99.90
5508;DHT22;2776;51.046;6.772;2023-02-28T02:25:39;0.70;99.90
5508;DHT22;2776;51.046;6.772;2023-02-28T02:28:40;0.70;99.90
5508;DHT22;2776;51.046;6.772;2023-02-28T02:31:46;0.80;99.90
5508;DHT22;2776;51.046;6.772;2023-02-28T02:34:44;0.80;99.90
5508;DHT22;2776;51.046;6.772;2023-02-28T02:37:24;0.80;99.90
5508;DHT22;2776;51.046;6.772;2023-02-28T02:40:00;0.80;99.90
5508;DHT22;2776;51.046;6.772;2023-02-28T02:42:34;0.80;99.90
5508;DHT22;2776;51.046;6.772;2023-02-28T02:45:07;0.80;99.90
5508;DHT22;2776;51.046;6.772;2023-02-28T02:47:37;0.80;99.90
5508;DHT22;2776;51.046;6.772;2023-02-28T02:50:11;0.90;99.90
5508;DHT22;2776;51.046;6.772;2023-02-28T02:52:42;0.90;99.90
5508;DHT22;2776;51.046;6.772;2023-02-28T02:55:12;0.90;99.90
5508;DHT22;2776;51.046;6.772;2023-02-28T02:57:43;0.90;99.90
5508;DHT22;2776;51.046;6.772;2023-02-28T03:00:13;0.90;99.90
5508;DHT22;2776;51.046;6.772;2023-02-28T03:02:41;0.90;99.90
5508;DHT22;2776;51.046;6.772;2023-02-28T03:05:16;0.90;99.90
5508;DHT22;2776;51.046;6.772;2023-02-28T03:07:44;0.80;99.90
5508;DHT22;2776;51.046;6.772;2023-02-28T03:10:33;0.80;99.90
5508;DHT22;2776;51.046;6.772;2023-02-28T03:13:11;0.60;99.90
5508;DHT22;2776;51.046;6.772;2023-02-28T03:15:43;0.50;99.90
5508;DHT22;2776;51.046;6.772;2023-02-28T03:18:18;0.40;99.90
5508;DHT22;2776;51.046;6.772;2023-02-28T03:20:57;0.30;99.90
5508;DHT22;2776;51.046;6.772;2023-02-28T03:23:31;0.20;99.90
5508;DHT22;2776;51.046;6.772;2023-02-28T03:26:04;0.10;99.90
5508;DHT22;2776;51.046;6.772;2023-02-28T03:28:36;0.00;99.90
5508;DHT22;2776;51.046;6.772;2023-02-28T03:31:10;-0.10;99.90
5508;DHT22;2776;51.046;6.772;2023-02-28T03:33:46;-0.20;99.90
5508;DHT22;2776;51.046;6.772;2023-02-28T03:36:24;-0.20;99.90
5508;DHT22;2776;51.046;6.772;2023-02-28T03:38:55;-0.20;99.90
5508;DHT22;2776;51.046;6.772;2023-02-28T03:41:31;-0.30;99.90
5508;DHT22;2776;51.046;6.772;2023-02-28T03:44:02;-0.30;99.90
5508;DHT22;2776;51.046;6.772;2023-02-28T03:46:33;-0.40;99.90
5508;DHT22;2776;51.046;6.772;2023-02-28T03:49:03;-0.30;99.90
5508;DHT22;2776;51.046;6.772;2023-02-28T03:51:34;-0.30;99.90
5508;DHT22;2776;51.046;6.772;2023-02-28T03:54:06;-0.30;99.90
5508;DHT22;2776;51.046;6.772;2023-02-28T03:56:38;-0.30;99.90
5508;DHT22;2776;51.046;6.772;2023-02-28T03:59:09;-0.40;99.90
5508;DHT22;2776;51.046;6.772;2023-02-28T04:01:41;-0.40;99.90
5508;DHT22;2776;51.046;6.772;2023-02-28T04:04:10;-0.40;99.90
5508;DHT22;2776;51.046;6.772;2023-02-28T04:06:39;-0.40;99.90
5508;DHT22;2776;51.046;6.772;2023-02-28T04:09:07;-0.50;99.90
5508;DHT22;2776;51.046;6.772;2023-02-28T04:11:37;-0.50;99.90
5508;DHT22;2776;51.046;6.772;2023-02-28T04:14:04;-0.60;99.90
5508;DHT22;2776;51.046;6.772;2023-02-28T04:16:33;-0.60;99.90
5508;DHT22;2776;51.046;6.772;2023-02-28T04:19:00;-0.60;99.90
5508;DHT22;2776;51.046;6.772;2023-02-28T04:21:29;-0.60;99.90
5508;DHT22;2776;51.046;6.772;2023-02-28T04:23:57;-0.60;99.90
5508;DHT22;2776;51.046;6.772;2023-02-28T04:26:27;-0.70;99.90
5508;DHT22;2776;51.046;6.772;2023-02-28T04:28:55;-0.80;99.90
5508;DHT22;2776;51.046;6.772;2023-02-28T04:31:21;-0.80;99.90
5508;DHT22;2776;51.046;6.772;2023-02-28T04:33:48;-0.70;99.90
5508;DHT22;2776;51.046;6.772;2023-02-28T04:36:15;-0.70;99.90
5508;DHT22;2776;51.046;6.772;2023-02-28T04:38:44;-0.70;99.90
5508;DHT22;2776;51.046;6.772;2023-02-28T04:41:12;-0.70;99.90
5508;DHT22;2776;51.046;6.772;2023-02-28T04:43:40;-0.70;99.90
5508;DHT22;2776;51.046;6.772;2023-02-28T04:46:07;-0.70;99.90
5508;DHT22;2776;51.046;6.772;2023-02-28T04:48:36;-0.70;99.90
5508;DHT22;2776;51.046;6.772;2023-02-28T04:51:05;-0.70;99.90
5508;DHT22;2776;51.046;6.772;2023-02-28T04:53:33;-0.70;99.90
5508;DHT22;2776;51.046;6.772;2023-02-28T04:56:00;-0.70;99.90
5508;DHT22;2776;51.046;6.772;2023-02-28T04:58:28;-0.80;99.90
5508;DHT22;2776;51.046;6.772;2023-02-28T05:01:01;-0.80;99.90
5508;DHT22;2776;51.046;6.772;2023-02-28T05:03:28;-0.70;99.90
5508;DHT22;2776;51.046;6.772;2023-02-28T05:05:55;-0.70;99.90
5508;DHT22;2776;51.046;6.772;2023-02-28T05:08:22;-0.70;99.90
5508;DHT22;2776;51.046;6.772;2023-02-28T05:10:49;-0.70;99.90
5508;DHT22;2776;51.046;6.772;2023-02-28T05:13:15;-0.70;99.90
5508;DHT22;2776;51.046;6.772;2023-02-28T05:15:43;-0.70;99.90
5508;DHT22;2776;51.046;6.772;2023-02-28T05:18:10;-0.70;99.90
5508;DHT22;2776;51.046;6.772;2023-02-28T05:20:37;-0.70;99.90
5508;DHT22;2776;51.046;6.772;2023-02-28T05:23:04;-0.70;99.90
5508;DHT22;2776;51.046;6.772;2023-02-28T05:25:30;-0.70;99.90
5508;DHT22;2776;51.046;6.772;2023-02-28T05:27:57;-0.70;99.90
5508;DHT22;2776;51.046;6.772;2023-02-28T05:30:24;-0.70;99.90
5508;DHT22;2776;51.046;6.772;2023-02-28T05:32:52;-0.60;99.90
5508;DHT22;2776;51.046;6.772;2023-02-28T05:35:19;-0.70;99.90
5508;DHT22;2776;51.046;6.772;2023-02-28T05:37:45;-0.70;99.90
5508;DHT22;2776;51.046;6.772;2023-02-28T05:40:12;-0.70;99.90
5508;DHT22;2776;51.046;6.772;2023-02-28T05:42:41;-0.70;99.90
5508;DHT22;2776;51.046;6.772;2023-02-28T05:45:08;-0.70;99.90
5508;DHT22;2776;51.046;6.772;2023-02-28T05:47:35;-0.60;99.90
5508;DHT22;2776;51.046;6.772;2023-02-28T05:50:05;-0.60;99.90
5508;DHT22;2776;51.046;6.772;2023-02-28T05:52:32;-0.60;99.90
5508;DHT22;2776;51.046;6.772;2023-02-28T05:54:59;-0.50;99.90
5508;DHT22;2776;51.046;6.772;2023-02-28T05:57:25;-0.50;99.90
5508;DHT22;2776;51.046;6.772;2023-02-28T05:59:52;-0.50;99.90
5508;DHT22;2776;51.046;6.772;2023-02-28T06:02:19;-0.50;99.90
5508;DHT22;2776;51.046;6.772;2023-02-28T06:04:46;-0.50;99.90
5508;DHT22;2776;51.046;6.772;2023-02-28T06:07:14;-0.40;99.90
5508;DHT22;2776;51.046;6.772;2023-02-28T06:09:43;-0.40;99.90
5508;DHT22;2776;51.046;6.772;2023-02-28T06:12:10;-0.40;99.90
5508;DHT22;2776;51.046;6.772;2023-02-28T06:14:36;-0.40;99.90
5508;DHT22;2776;51.046;6.772;2023-02-28T06:17:04;-0.40;99.90
5508;DHT22;2776;51.046;6.772;2023-02-28T06:19:30;-0.40;99.90
5508;DHT22;2776;51.046;6.772;2023-02-28T06:21:57;-0.40;99.90
5508;DHT22;2776;51.046;6.772;2023-02-28T06:24:26;-0.50;99.90
5508;DHT22;2776;51.046;6.772;2023-02-28T06:26:54;-0.50;99.90
5508;DHT22;2776;51.046;6.772;2023-02-28T06:29:21;-0.50;99.90
5508;DHT22;2776;51.046;6.772;2023-02-28T06:31:48;-0.40;99.90
5508;DHT22;2776;51.046;6.772;2023-02-28T06:34:16;-0.40;99.90
5508;DHT22;2776;51.046;6.772;2023-02-28T06:36:43;-0.30;99.90
5508;DHT22;2776;51.046;6.772;2023-02-28T06:39:10;-0.30;99.90
5508;DHT22;2776;51.046;6.772;2023-02-28T06:41:38;-0.30;99.90
5508;DHT22;2776;51.046;6.772;2023-02-28T06:44:08;-0.30;99.90
5508;DHT22;2776;51.046;6.772;2023-02-28T06:46:38;-0.30;99.90
5508;DHT22;2776;51.046;6.772;2023-02-28T06:49:05;-0.20;99.90
5508;DHT22;2776;51.046;6.772;2023-02-28T06:51:35;0.00;99.90
5508;DHT22;2776;51.046;6.772;2023-02-28T06:54:02;0.40;99.90
5508;DHT22;2776;51.046;6.772;2023-02-28T06:56:29;0.90;99.90
5508;DHT22;2776;51.046;6.772;2023-02-28T06:58:57;1.50;99.90
5508;DHT22;2776;51.046;6.772;2023-02-28T07:01:24;2.10;99.90
5508;DHT22;2776;51.046;6.772;2023-02-28T07:03:51;2.50;99.90
5508;DHT22;2776;51.046;6.772;2023-02-28T07:06:18;2.90;99.90
5508;DHT22;2776;51.046;6.772;2023-02-28T07:08:48;3.20;99.90
5508;DHT22;2776;51.046;6.772;2023-02-28T07:11:15;3.60;98.70
5508;DHT22;2776;51.046;6.772;2023-02-28T07:13:41;3.80;96.10
5508;DHT22;2776;51.046;6.772;2023-02-28T07:16:11;4.10;94.30
5508;DHT22;2776;51.046;6.772;2023-02-28T07:18:38;4.50;89.50
5508;DHT22;2776;51.046;6.772;2023-02-28T07:21:08;4.90;84.00
5508;DHT22;2776;51.046;6.772;2023-02-28T07:23:35;5.30;75.60
5508;DHT22;2776;51.046;6.772;2023-02-28T07:26:04;5.60;71.80
5508;DHT22;2776;51.046;6.772;2023-02-28T07:28:30;5.80;67.90
5508;DHT22;2776;51.046;6.772;2023-02-28T07:31:02;6.00;59.60
5508;DHT22;2776;51.046;6.772;2023-02-28T07:33:30;6.00;56.70
5508;DHT22;2776;51.046;6.772;2023-02-28T07:36:00;6.00;54.10
5508;DHT22;2776;51.046;6.772;2023-02-28T07:38:27;6.00;52.40
5508;DHT22;2776;51.046;6.772;2023-02-28T07:40:54;5.90;49.30
5508;DHT22;2776;51.046;6.772;2023-02-28T07:43:21;6.00;47.00
5508;DHT22;2776;51.046;6.772;2023-02-28T07:45:47;6.00;46.90
5508;DHT22;2776;51.046;6.772;2023-02-28T07:48:14;6.10;45.00
5508;DHT22;2776;51.046;6.772;2023-02-28T07:50:42;6.20;45.30
5508;DHT22;2776;51.046;6.772;2023-02-28T07:53:09;6.30;44.80
5508;DHT22;2776;51.046;6.772;2023-02-28T07:55:36;6.20;43.60
5508;DHT22;2776;51.046;6.772;2023-02-28T07:58:02;6.10;42.60
5508;DHT22;2776;51.046;6.772;2023-02-28T08:00:29;6.10;42.90
5508;DHT22;2776;51.046;6.772;2023-02-28T08:02:57;6.00;42.20
5508;DHT22;2776;51.046;6.772;2023-02-28T08:05:24;5.80;43.00
5508;DHT22;2776;51.046;6.772;2023-02-28T08:07:52;5.70;42.40
5508;DHT22;2776;51.046;6.772;2023-02-28T08:10:20;5.60;42.30
5508;DHT22;2776;51.046;6.772;2023-02-28T08:12:46;5.60;42.20
5508;DHT22;2776;51.046;6.772;2023-02-28T08:15:13;5.50;42.20
5508;DHT22;2776;51.046;6.772;2023-02-28T08:17:40;5.60;43.00
5508;DHT22;2776;51.046;6.772;2023-02-28T08:20:08;6.00;41.70
5508;DHT22;2776;51.046;6.772;2023-02-28T08:22:35;5.80;41.60
5508;DHT22;2776;51.046;6.772;2023-02-28T08:25:04;5.70;41.00
5508;DHT22;2776;51.046;6.772;2023-02-28T08:27:32;5.20;42.10
5508;DHT22;2776;51.046;6.772;2023-02-28T08:29:59;5.00;42.50
5508;DHT22;2776;51.046;6.772;2023-02-28T08:32:26;5.10;43.10
5508;DHT22;2776;51.046;6.772;2023-02-28T08:34:53;5.10;42.20
5508;DHT22;2776;51.046;6.772;2023-02-28T08:37:19;5.40;42.90
5508;DHT22;2776;51.046;6.772;2023-02-28T08:39:46;5.80;41.40
5508;DHT22;2776;51.046;6.772;2023-02-28T08:42:14;5.90;41.70
5508;DHT22;2776;51.046;6.772;2023-02-28T08:44:41;5.80;41.20
5508;DHT22;2776;51.046;6.772;2023-02-28T08:47:08;5.60;41.70
5508;DHT22;2776;51.046;6.772;2023-02-28T08:49:36;5.70;41.40
5508;DHT22;2776;51.046;6.772;2023-02-28T08:52:03;5.70;40.80
5508;DHT22;2776;51.046;6.772;2023-02-28T08:54:29;5.80;39.80
5508;DHT22;2776;51.046;6.772;2023-02-28T08:56:57;5.70;39.70
5508;DHT22;2776;51.046;6.772;2023-02-28T08:59:25;5.90;39.90
5508;DHT22;2776;51.046;6.772;2023-02-28T09:01:52;6.20;39.80
5508;DHT22;2776;51.046;6.772;2023-02-28T09:04:18;6.40;37.90
5508;DHT22;2776;51.046;6.772;2023-02-28T09:06:45;6.30;35.70
5508;DHT22;2776;51.046;6.772;2023-02-28T09:09:14;6.20;35.50
5508;DHT22;2776;51.046;6.772;2023-02-28T09:11:41;6.30;35.50
5508;DHT22;2776;51.046;6.772;2023-02-28T09:14:08;6.40;35.50
5508;DHT22;2776;51.046;6.772;2023-02-28T09:16:36;6.60;34.10
5508;DHT22;2776;51.046;6.772;2023-02-28T09:19:03;6.80;33.80
5508;DHT22;2776;51.046;6.772;2023-02-28T09:21:29;6.80;34.90
5508;DHT22;2776;51.046;6.772;2023-02-28T09:23:56;6.60;33.30
5508;DHT22;2776;51.046;6.772;2023-02-28T09:26:25;6.30;32.90
5508;DHT22;2776;51.046;6.772;2023-02-28T09:28:52;6.10;33.70
5508;DHT22;2776;51.046;6.772;2023-02-28T09:31:22;6.10;34.80
5508;DHT22;2776;51.046;6.772;2023-02-28T09:33:52;6.10;34.60
5508;DHT22;2776;51.046;6.772;2023-02-28T09:36:19;6.30;35.30
5508;DHT22;2776;51.046;6.772;2023-02-28T09:38:46;6.40;33.90
5508;DHT22;2776;51.046;6.772;2023-02-28T09:41:15;6.00;32.60
5508;DHT22;2776;51.046;6.772;2023-02-28T09:43:46;6.00;34.70
5508;DHT22;2776;51.046;6.772;2023-02-28T09:46:30;6.00;35.50
5508;DHT22;2776;51.046;6.772;2023-02-28T09:49:02;6.00;35.50
5508;DHT22;2776;51.046;6.772;2023-02-28T09:51:37;6.20;35.20
5508;DHT22;2776;51.046;6.772;2023-02-28T09:54:08;6.50;36.50
5508;DHT22;2776;51.046;6.772;2023-02-28T09:56:37;6.40;34.90
5508;DHT22;2776;51.046;6.772;2023-02-28T09:59:12;6.20;34.20
5508;DHT22;2776;51.046;6.772;2023-02-28T10:01:45;5.50;34.80
5508;DHT22;2776;51.046;6.772;2023-02-28T10:04:24;5.00;35.80
5508;DHT22;2776;51.046;6.772;2023-02-28T10:06:55;4.90;36.80
5508;DHT22;2776;51.046;6.772;2023-02-28T10:09:25;4.70;37.30
5508;DHT22;2776;51.046;6.772;2023-02-28T10:11:57;4.40;38.00
5508;DHT22;2776;51.046;6.772;2023-02-28T10:14:28;4.40;38.70
5508;DHT22;2776;51.046;6.772;2023-02-28T10:16:58;4.40;38.90
5508;DHT22;2776;51.046;6.772;2023-02-28T10:19:31;4.40;39.30
5508;DHT22;2776;51.046;6.772;2023-02-28T10:22:04;4.50;39.50
5508;DHT22;2776;51.046;6.772;2023-02-28T10:24:38;4.50;38.60
5508;DHT22;2776;51.046;6.772;2023-02-28T10:27:13;4.60;38.60
5508;DHT22;2776;51.046;6.772;2023-02-28T10:29:43;4.60;39.60
5508;DHT22;2776;51.046;6.772;2023-02-28T10:32:15;4.60;39.50
5508;DHT22;2776;51.046;6.772;2023-02-28T10:34:44;4.50;38.80
5508;DHT22;2776;51.046;6.772;2023-02-28T10:37:16;4.40;39.60
5508;DHT22;2776;51.046;6.772;2023-02-28T10:39:45;4.50;39.90
5508;DHT22;2776;51.046;6.772;2023-02-28T10:42:22;4.50;39.10
5508;DHT22;2776;51.046;6.772;2023-02-28T10:45:05;4.50;39.60
5508;DHT22;2776;51.046;6.772;2023-02-28T10:47:33;4.60;39.70
5508;DHT22;2776;51.046;6.772;2023-02-28T10:50:03;4.60;39.70
5508;DHT22;2776;51.046;6.772;2023-02-28T10:52:36;4.80;40.20
5508;DHT22;2776;51.046;6.772;2023-02-28T10:55:16;4.90;39.50
5508;DHT22;2776;51.046;6.772;2023-02-28T10:57:46;5.00;40.90
5508;DHT22;2776;51.046;6.772;2023-02-28T11:00:15;5.00;39.90
5508;DHT22;2776;51.046;6.772;2023-02-28T11:02:42;5.10;40.60
5508;DHT22;2776;51.046;6.772;2023-02-28T11:05:28;5.10;40.00
5508;DHT22;2776;51.046;6.772;2023-02-28T11:07:58;5.10;41.40
5508;DHT22;2776;51.046;6.772;2023-02-28T11:10:30;5.10;41.90
5508;DHT22;2776;51.046;6.772;2023-02-28T11:13:00;5.10;40.80
5508;DHT22;2776;51.046;6.772;2023-02-28T11:15:29;5.00;39.90
5508;DHT22;2776;51.046;6.772;2023-02-28T11:17:58;5.00;39.60
5508;DHT22;2776;51.046;6.772;2023-02-28T11:20:29;5.00;39.10
5508;DHT22;2776;51.046;6.772;2023-02-28T11:22:57;5.00;38.40
5508;DHT22;2776;51.046;6.772;2023-02-28T11:25:28;5.20;39.30
5508;DHT22;2776;51.046;6.772;2023-02-28T11:27:57;5.30;39.00
5508;DHT22;2776;51.046;6.772;2023-02-28T11:30:31;5.30;39.80
5508;DHT22;2776;51.046;6.772;2023-02-28T11:32:58;5.40;39.10
5508;DHT22;2776;51.046;6.772;2023-02-28T11:35:31;5.40;39.20
5508;DHT22;2776;51.046;6.772;2023-02-28T11:38:00;5.30;39.20
5508;DHT22;2776;51.046;6.772;2023-02-28T11:40:35;5.30;38.40
5508;DHT22;2776;51.046;6.772;2023-02-28T11:43:16;5.40;40.00
5508;DHT22;2776;51.046;6.772;2023-02-28T11:48:49;5.60;39.00
5508;DHT22;2776;51.046;6.772;2023-02-28T11:51:26;5.40;38.80
5508;DHT22;2776;51.046;6.772;2023-02-28T11:57:13;5.60;40.50
5508;DHT22;2776;51.046;6.772;2023-02-28T11:59:52;5.50;41.40
5508;DHT22;2776;51.046;6.772;2023-02-28T12:02:29;5.40;40.60
5508;DHT22;2776;51.046;6.772;2023-02-28T12:05:16;5.30;42.00
5508;DHT22;2776;51.046;6.772;2023-02-28T12:08:01;5.20;41.20
5508;DHT22;2776;51.046;6.772;2023-02-28T12:10:32;5.10;40.80
5508;DHT22;2776;51.046;6.772;2023-02-28T12:13:12;5.20;42.50
5508;DHT22;2776;51.046;6.772;2023-02-28T12:16:11;5.30;41.60
5508;DHT22;2776;51.046;6.772;2023-02-28T12:18:51;5.40;41.40
5508;DHT22;2776;51.046;6.772;2023-02-28T12:21:27;5.60;42.60
5508;DHT22;2776;51.046;6.772;2023-02-28T12:24:12;5.70;43.30
5508;DHT22;2776;51.046;6.772;2023-02-28T12:26:44;6.00;43.20
5508;DHT22;2776;51.046;6.772;2023-02-28T12:29:16;6.20;43.60
5508;DHT22;2776;51.046;6.772;2023-02-28T12:31:49;6.20;41.60
5508;DHT22;2776;51.046;6.772;2023-02-28T12:34:20;6.20;40.70
5508;DHT22;2776;51.046;6.772;2023-02-28T12:36:49;6.10;40.70
5508;DHT22;2776;51.046;6.772;2023-02-28T12:39:25;6.10;41.20
5508;DHT22;2776;51.046;6.772;2023-02-28T12:41:55;6.20;40.40
5508;DHT22;2776;51.046;6.772;2023-02-28T12:44:28;6.40;40.40
5508;DHT22;2776;51.046;6.772;2023-02-28T12:47:00;6.40;39.50
5508;DHT22;2776;51.046;6.772;2023-02-28T12:49:33;6.30;39.70
5508;DHT22;2776;51.046;6.772;2023-02-28T12:52:01;6.30;41.30
5508;DHT22;2776;51.046;6.772;2023-02-28T12:54:35;6.10;40.20
5508;DHT22;2776;51.046;6.772;2023-02-28T12:57:08;5.80;41.60
5508;DHT22;2776;51.046;6.772;2023-02-28T12:59:40;5.80;41.40
5508;DHT22;2776;51.046;6.772;2023-02-28T13:02:51;5.90;42.60
5508;DHT22;2776;51.046;6.772;2023-02-28T13:11:39;5.60;40.50
5508;DHT22;2776;51.046;6.772;2023-02-28T13:14:19;5.70;40.50
5508;DHT22;2776;51.046;6.772;2023-02-28T13:16:55;5.70;41.00
5508;DHT22;2776;51.046;6.772;2023-02-28T13:19:24;5.70;40.00
5508;DHT22;2776;51.046;6.772;2023-02-28T13:21:52;5.80;41.20
5508;DHT22;2776;51.046;6.772;2023-02-28T13:24:39;5.90;42.20
5508;DHT22;2776;51.046;6.772;2023-02-28T13:27:36;5.90;39.90
5508;DHT22;2776;51.046;6.772;2023-02-28T13:33:22;6.00;41.40
5508;DHT22;2776;51.046;6.772;2023-02-28T13:36:06;5.90;40.90
5508;DHT22;2776;51.046;6.772;2023-02-28T13:38:41;5.80;40.10
5508;DHT22;2776;51.046;6.772;2023-02-28T13:44:23;5.80;40.20
5508;DHT22;2776;51.046;6.772;2023-02-28T13:47:20;5.90;39.80
5508;DHT22;2776;51.046;6.772;2023-02-28T13:49:47;6.00;39.70
5508;DHT22;2776;51.046;6.772;2023-02-28T13:52:18;6.10;40.30
5508;DHT22;2776;51.046;6.772;2023-02-28T13:57:48;6.30;39.80
5508;DHT22;2776;51.046;6.772;2023-02-28T14:00:28;6.20;39.00
5508;DHT22;2776;51.046;6.772;2023-02-28T14:03:24;6.20;38.90
5508;DHT22;2776;51.046;6.772;2023-02-28T14:06:16;6.20;39.00
5508;DHT22;2776;51.046;6.772;2023-02-28T14:08:52;6.20;39.40
5508;DHT22;2776;51.046;6.772;2023-02-28T14:11:31;6.10;39.10
5508;DHT22;2776;51.046;6.772;2023-02-28T14:13:59;6.10;38.50
5508;DHT22;2776;51.046;6.772;2023-02-28T14:16:35;6.10;38.60
5508;DHT22;2776;51.046;6.772;2023-02-28T14:19:10;6.10;39.40
5508;DHT22;2776;51.046;6.772;2023-02-28T14:21:43;6.10;39.90
5508;DHT22;2776;51.046;6.772;2023-02-28T14:24:46;6.20;40.20
5508;DHT22;2776;51.046;6.772;2023-02-28T14:27:37;6.30;39.70
5508;DHT22;2776;51.046;6.772;2023-02-28T14:30:37;6.20;39.30
5508;DHT22;2776;51.046;6.772;2023-02-28T14:33:25;6.20;39.20
5508;DHT22;2776;51.046;6.772;2023-02-28T14:36:12;6.20;39.10
5508;DHT22;2776;51.046;6.772;2023-02-28T14:38:44;6.20;39.50
5508;DHT22;2776;51.046;6.772;2023-02-28T14:41:16;6.20;39.70
5508;DHT22;2776;51.046;6.772;2023-02-28T14:43:51;6.20;39.90
5508;DHT22;2776;51.046;6.772;2023-02-28T14:46:18;6.20;39.70
5508;DHT22;2776;51.046;6.772;2023-02-28T14:48:47;6.20;40.40
5508;DHT22;2776;51.046;6.772;2023-02-28T14:51:19;6.20;39.70
5508;DHT22;2776;51.046;6.772;2023-02-28T14:53:50;6.20;39.80
5508;DHT22;2776;51.046;6.772;2023-02-28T14:56:23;6.30;39.80
5508;DHT22;2776;51.046;6.772;2023-02-28T14:58:52;6.30;39.80
5508;DHT22;2776;51.046;6.772;2023-02-28T15:01:21;6.40;40.70
5508;DHT22;2776;51.046;6.772;2023-02-28T15:03:57;6.40;39.70
5508;DHT22;2776;51.046;6.772;2023-02-28T15:06:24;6.30;38.80
5508;DHT22;2776;51.046;6.772;2023-02-28T15:09:06;6.30;38.50
5508;DHT22;2776;51.046;6.772;2023-02-28T15:11:33;6.20;38.20
5508;DHT22;2776;51.046;6.772;2023-02-28T15:14:01;6.20;38.50
5508;DHT22;2776;51.046;6.772;2023-02-28T15:16:32;6.20;38.30
5508;DHT22;2776;51.046;6.772;2023-02-28T15:19:05;6.30;38.60
5508;DHT22;2776;51.046;6.772;2023-02-28T15:21:34;6.30;38.40
5508;DHT22;2776;51.046;6.772;2023-02-28T15:24:12;6.40;38.90
5508;DHT22;2776;51.046;6.772;2023-02-28T15:26:43;6.40;39.70
5508;DHT22;2776;51.046;6.772;2023-02-28T15:29:13;6.40;39.20
5508;DHT22;2776;51.046;6.772;2023-02-28T15:31:44;6.40;40.20
5508;DHT22;2776;51.046;6.772;2023-02-28T15:34:19;6.50;39.80
5508;DHT22;2776;51.046;6.772;2023-02-28T15:36:47;6.40;39.40
5508;DHT22;2776;51.046;6.772;2023-02-28T15:39:21;6.40;39.90
5508;DHT22;2776;51.046;6.772;2023-02-28T15:41:48;6.40;39.20
5508;DHT22;2776;51.046;6.772;2023-02-28T15:44:17;6.20;38.60
5508;DHT22;2776;51.046;6.772;2023-02-28T15:46:55;6.30;39.70
5508;DHT22;2776;51.046;6.772;2023-02-28T15:49:25;6.30;39.90
5508;DHT22;2776;51.046;6.772;2023-02-28T15:51:53;6.30;40.00
5508;DHT22;2776;51.046;6.772;2023-02-28T15:54:23;6.30;40.20
5508;DHT22;2776;51.046;6.772;2023-02-28T15:56:54;6.20;39.70
5508;DHT22;2776;51.046;6.772;2023-02-28T15:59:23;6.20;39.90
5508;DHT22;2776;51.046;6.772;2023-02-28T16:02:11;6.20;40.30
5508;DHT22;2776;51.046;6.772;2023-02-28T16:04:56;6.20;39.70
5508;DHT22;2776;51.046;6.772;2023-02-28T16:07:22;6.20;40.10
5508;DHT22;2776;51.046;6.772;2023-02-28T16:09:50;6.20;40.20
5508;DHT22;2776;51.046;6.772;2023-02-28T16:12:17;6.20;39.90
5508;DHT22;2776;51.046;6.772;2023-02-28T16:14:44;6.20;39.80
5508;DHT22;2776;51.046;6.772;2023-02-28T16:17:19;6.20;40.30
5508;DHT22;2776;51.046;6.772;2023-02-28T16:19:46;6.10;41.20
5508;DHT22;2776;51.046;6.772;2023-02-28T16:22:14;6.10;40.40
5508;DHT22;2776;51.046;6.772;2023-02-28T16:24:41;6.00;40.40
5508;DHT22;2776;51.046;6.772;2023-02-28T16:27:16;6.00;39.60
5508;DHT22;2776;51.046;6.772;2023-02-28T16:29:44;6.00;40.80
5508;DHT22;2776;51.046;6.772;2023-02-28T16:32:12;6.00;41.10
5508;DHT22;2776;51.046;6.772;2023-02-28T16:34:40;6.00;40.60
5508;DHT22;2776;51.046;6.772;2023-02-28T16:37:11;6.00;40.10
5508;DHT22;2776;51.046;6.772;2023-02-28T16:39:40;6.00;41.80
5508;DHT22;2776;51.046;6.772;2023-02-28T16:42:12;5.90;44.30
5508;DHT22;2776;51.046;6.772;2023-02-28T16:44:40;5.90;45.60
5508;DHT22;2776;51.046;6.772;2023-02-28T16:47:10;5.80;45.80
5508;DHT22;2776;51.046;6.772;2023-02-28T16:49:37;5.70;47.00
5508;DHT22;2776;51.046;6.772;2023-02-28T16:52:05;5.60;47.30
5508;DHT22;2776;51.046;6.772;2023-02-28T16:54:32;5.50;48.20
5508;DHT22;2776;51.046;6.772;2023-02-28T16:57:00;5.40;49.10
5508;DHT22;2776;51.046;6.772;2023-02-28T16:59:27;5.30;49.20
5508;DHT22;2776;51.046;6.772;2023-02-28T17:01:55;5.20;50.00
5508;DHT22;2776;51.046;6.772;2023-02-28T17:04:23;5.10;50.60
5508;DHT22;2776;51.046;6.772;2023-02-28T17:06:49;5.10;50.80
5508;DHT22;2776;51.046;6.772;2023-02-28T17:09:18;5.00;51.90